Time;durP1;ratioP1;P1;durP2;ratioP2;P2;SDS_P1;SDS_P2;PMS_P1;PMS_P2;Temp;Humidity;BMP_temperature;BMP_pressure;BME280_temperature;BME280_humidity;BME280_pressure;Samples;Min_cycle;Max_cycle;Signal;HPM_P1;HPM_P2
2023/09/07 01:52:25;;;;;;;;;;;16.50;92.20;;;;;;5045924;28;19921;-93
2023/09/07 01:54:50;;;;;;;;;;;16.30;92.90;;;;;;5029370;28;19917;-93
2023/09/07 01:57:16;;;;;;;;;;;16.40;93.60;;;;;;5023964;28;19905;-93
2023/09/07 01:59:41;;;;;;;;;;;16.40;94.20;;;;;;5010500;28;19913;-95
2023/09/07 02:02:07;;;;;;;;;;;16.50;95.10;;;;;;5007977;28;19917;-92
2023/09/07 02:04:32;;;;;;;;;;;16.50;95.30;;;;;;5025519;28;20329;-92
2023/09/07 02:06:58;;;;;;;;;;;16.60;95.80;;;;;;5015629;28;19914;-94
2023/09/07 02:09:23;;;;;;;;;;;16.70;96.20;;;;;;5024963;28;20274;-96
2023/09/07 02:11:51;;;;;;;;;;;16.70;96.40;;;;;;5045392;28;19913;-96
2023/09/07 02:14:17;;;;;;;;;;;16.80;96.80;;;;;;5033758;28;19913;-96
2023/09/07 02:16:42;;;;;;;;;;;16.90;97.00;;;;;;5061845;23;19949;-96
2023/09/07 02:19:09;;;;;;;;;;;16.90;97.20;;;;;;4959064;28;19918;-93
2023/09/07 02:21:35;;;;;;;;;;;17.00;97.40;;;;;;4955432;28;19940;-93
2023/09/07 02:24:00;;;;;;;;;;;17.00;97.60;;;;;;4952770;28;20497;-93
2023/09/07 02:26:26;;;;;;;;;;;17.10;98.20;;;;;;4953834;28;19921;-93
2023/09/07 02:28:51;;;;;;;;;;;17.20;98.50;;;;;;4970519;28;19914;-93
2023/09/07 02:31:17;;;;;;;;;;;17.20;99.00;;;;;;4971675;28;19910;-93
2023/09/07 02:33:42;;;;;;;;;;;17.30;99.40;;;;;;4985107;28;19969;-94
2023/09/07 02:36:08;;;;;;;;;;;17.30;99.70;;;;;;4961913;28;19962;-94
2023/09/07 02:38:33;;;;;;;;;;;17.40;99.90;;;;;;4949411;28;20360;-96
2023/09/07 02:40:59;;;;;;;;;;;17.40;99.90;;;;;;4968108;28;19915;-94
2023/09/07 02:43:24;;;;;;;;;;;17.50;99.90;;;;;;4946100;28;19914;-93
2023/09/07 02:45:50;;;;;;;;;;;17.50;99.90;;;;;;4947095;28;20348;-94
2023/09/07 02:48:15;;;;;;;;;;;17.50;99.90;;;;;;4965709;28;19987;-95
2023/09/07 02:50:49;;;;;;;;;;;17.60;99.90;;;;;;4965518;28;20021;-95
2023/09/07 02:53:15;;;;;;;;;;;17.60;99.90;;;;;;4962716;28;20410;-95
2023/09/07 02:55:40;;;;;;;;;;;17.60;99.90;;;;;;4945782;28;20033;-96
2023/09/07 02:58:06;;;;;;;;;;;17.70;99.90;;;;;;4964810;28;19911;-94
2023/09/07 03:00:31;;;;;;;;;;;17.70;99.90;;;;;;4958695;28;19921;-94
2023/09/07 03:02:58;;;;;;;;;;;17.70;99.90;;;;;;4930727;28;19933;-94
2023/09/07 03:05:26;;;;;;;;;;;17.70;99.90;;;;;;4929378;29;19931;-94
2023/09/07 03:07:52;;;;;;;;;;;17.70;99.90;;;;;;4927883;29;19910;-94
2023/09/07 03:10:18;;;;;;;;;;;17.70;99.90;;;;;;4932978;29;19910;-95
2023/09/07 03:12:43;;;;;;;;;;;17.70;99.90;;;;;;4938178;29;20907;-95
2023/09/07 03:15:09;;;;;;;;;;;17.70;99.90;;;;;;4937479;28;21059;-96
2023/09/07 03:17:35;;;;;;;;;;;17.70;99.90;;;;;;4952866;28;19926;-95
2023/09/07 03:20:01;;;;;;;;;;;17.60;99.90;;;;;;4956549;28;19913;-96
2023/09/07 03:22:28;;;;;;;;;;;17.60;99.90;;;;;;4959231;28;19936;-95
2023/09/07 03:24:53;;;;;;;;;;;17.60;99.90;;;;;;4957897;28;19989;-95
2023/09/07 03:27:20;;;;;;;;;;;17.60;99.90;;;;;;4960343;28;19948;-95
2023/09/07 03:29:46;;;;;;;;;;;17.60;99.90;;;;;;4948354;29;20357;-95
2023/09/07 03:32:11;;;;;;;;;;;17.60;99.90;;;;;;4941535;29;20014;-96
2023/09/07 03:34:38;;;;;;;;;;;17.60;99.90;;;;;;4941986;29;20360;-94
2023/09/07 03:37:06;;;;;;;;;;;17.60;99.90;;;;;;4940559;29;19915;-95
2023/09/07 03:39:32;;;;;;;;;;;17.60;99.90;;;;;;4942936;29;19910;-96
2023/09/07 03:41:57;;;;;;;;;;;17.60;99.90;;;;;;4956331;28;20053;-96
2023/09/07 03:44:23;;;;;;;;;;;17.60;99.90;;;;;;4941809;28;21061;-95
2023/09/07 03:46:48;;;;;;;;;;;17.60;99.90;;;;;;4948464;28;19953;-95
2023/09/07 03:49:14;;;;;;;;;;;17.60;99.90;;;;;;4946014;29;19950;-95
2023/09/07 03:51:39;;;;;;;;;;;17.60;99.90;;;;;;4943227;29;20010;-96
2023/09/07 03:54:05;;;;;;;;;;;17.60;99.90;;;;;;4948489;28;20025;-95
2023/09/07 03:56:30;;;;;;;;;;;17.60;99.90;;;;;;4946746;29;20343;-96
2023/09/07 03:58:56;;;;;;;;;;;17.60;99.90;;;;;;4949454;29;19910;-94
2023/09/07 04:01:21;;;;;;;;;;;17.60;99.90;;;;;;4960214;28;19919;-94
2023/09/07 04:03:47;;;;;;;;;;;17.60;99.90;;;;;;4958592;28;19914;-94
2023/09/07 04:06:12;;;;;;;;;;;17.70;99.90;;;;;;4950316;29;19922;-91
2023/09/07 04:08:38;;;;;;;;;;;17.70;99.90;;;;;;4941050;29;19926;-95
2023/09/07 04:11:04;;;;;;;;;;;17.70;99.90;;;;;;4939759;29;20346;-94
2023/09/07 04:13:29;;;;;;;;;;;17.70;99.90;;;;;;4937385;28;19915;-93
2023/09/07 04:15:55;;;;;;;;;;;17.80;99.90;;;;;;4939141;29;19914;-93
2023/09/07 04:18:20;;;;;;;;;;;17.80;99.90;;;;;;4941077;28;19926;-92
2023/09/07 04:20:46;;;;;;;;;;;17.80;99.90;;;;;;4946699;28;19922;-93
2023/09/07 04:23:11;;;;;;;;;;;17.80;99.90;;;;;;4944941;29;19930;-92
2023/09/07 04:25:38;;;;;;;;;;;17.90;99.90;;;;;;4960259;28;19921;-93
2023/09/07 04:28:05;;;;;;;;;;;17.90;99.90;;;;;;4939146;28;20367;-92
2023/09/07 04:30:31;;;;;;;;;;;18.00;99.90;;;;;;4952210;28;19961;-95
2023/09/07 04:32:57;;;;;;;;;;;18.00;99.90;;;;;;4945953;28;19965;-95
2023/09/07 04:35:27;;;;;;;;;;;18.00;99.90;;;;;;4963999;28;19914;-93
2023/09/07 04:37:54;;;;;;;;;;;18.10;99.90;;;;;;4939231;28;19914;-93
2023/09/07 04:40:20;;;;;;;;;;;18.10;99.90;;;;;;4943103;28;19926;-91
2023/09/07 04:42:45;;;;;;;;;;;18.10;99.90;;;;;;4962198;28;19915;-95
2023/09/07 04:45:11;;;;;;;;;;;18.10;99.90;;;;;;4958658;28;19917;-92
2023/09/07 04:47:36;;;;;;;;;;;18.20;99.90;;;;;;4941486;29;20419;-91
2023/09/07 04:50:04;;;;;;;;;;;18.20;99.90;;;;;;4943990;28;20283;-94
2023/09/07 04:52:29;;;;;;;;;;;18.20;99.90;;;;;;4966914;28;19968;-94
2023/09/07 04:54:55;;;;;;;;;;;18.20;99.90;;;;;;4942704;29;20284;-92
2023/09/07 04:57:20;;;;;;;;;;;18.30;99.90;;;;;;4939092;29;19915;-92
2023/09/07 04:59:46;;;;;;;;;;;18.30;99.90;;;;;;4951714;28;19921;-96
2023/09/07 05:02:12;;;;;;;;;;;18.30;99.90;;;;;;4945893;29;19918;-93
2023/09/07 05:04:37;;;;;;;;;;;18.40;99.90;;;;;;4942522;29;19918;-92
2023/09/07 05:07:03;;;;;;;;;;;18.30;99.90;;;;;;4952045;28;20387;-93
2023/09/07 05:09:29;;;;;;;;;;;18.40;99.90;;;;;;4961894;28;20023;-93
2023/09/07 05:11:55;;;;;;;;;;;18.40;99.90;;;;;;4939237;28;20402;-92
2023/09/07 05:14:21;;;;;;;;;;;18.50;99.90;;;;;;4936606;28;19932;-91
2023/09/07 05:16:46;;;;;;;;;;;18.50;99.90;;;;;;4938764;29;19918;-93
2023/09/07 05:19:14;;;;;;;;;;;18.60;99.90;;;;;;4942226;28;19919;-93
2023/09/07 05:21:40;;;;;;;;;;;18.60;99.90;;;;;;4966624;28;19926;-94
2023/09/07 05:24:06;;;;;;;;;;;18.70;99.90;;;;;;4940289;29;20363;-93
2023/09/07 05:26:36;;;;;;;;;;;18.70;99.90;;;;;;4941204;29;19918;-93
2023/09/07 05:29:02;;;;;;;;;;;18.80;99.90;;;;;;4947853;29;19921;-92
2023/09/07 05:31:27;;;;;;;;;;;18.90;99.90;;;;;;4942201;28;20874;-92
2023/09/07 05:33:53;;;;;;;;;;;19.00;99.90;;;;;;4941823;29;19914;-93
2023/09/07 05:36:18;;;;;;;;;;;19.00;99.90;;;;;;4936544;28;19922;-91
2023/09/07 05:38:44;;;;;;;;;;;19.10;99.90;;;;;;4943242;28;19921;-91
2023/09/07 05:41:12;;;;;;;;;;;19.10;99.90;;;;;;4945292;29;19918;-91
2023/09/07 05:43:38;;;;;;;;;;;19.20;99.90;;;;;;4924194;29;19919;-92
2023/09/07 05:46:05;;;;;;;;;;;19.30;99.90;;;;;;4937955;29;19915;-93
2023/09/07 05:48:30;;;;;;;;;;;19.40;99.90;;;;;;4923669;28;19926;-92
2023/09/07 05:50:56;;;;;;;;;;;19.40;99.90;;;;;;4943230;28;19915;-92
2023/09/07 05:53:26;;;;;;;;;;;19.50;99.90;;;;;;4938415;29;19946;-91
2023/09/07 05:55:52;;;;;;;;;;;19.60;99.90;;;;;;4955885;29;19911;-92
2023/09/07 05:58:17;;;;;;;;;;;19.70;99.90;;;;;;4938345;28;20747;-95
2023/09/07 06:00:43;;;;;;;;;;;19.80;99.90;;;;;;4919124;29;20029;-95
2023/09/07 06:03:09;;;;;;;;;;;19.80;99.90;;;;;;4938874;29;19962;-94
2023/09/07 06:05:36;;;;;;;;;;;19.90;99.90;;;;;;4924917;28;19915;-95
2023/09/07 06:08:01;;;;;;;;;;;20.00;99.90;;;;;;4949289;28;20394;-95
2023/09/07 06:10:28;;;;;;;;;;;20.00;99.80;;;;;;4958164;28;19949;-96
2023/09/07 06:12:53;;;;;;;;;;;20.10;99.30;;;;;;4956414;28;19918;-95
2023/09/07 06:15:19;;;;;;;;;;;20.10;99.10;;;;;;4939097;29;19914;-95
2023/09/07 06:17:45;;;;;;;;;;;20.20;99.00;;;;;;4956614;29;19973;-94
2023/09/07 06:20:11;;;;;;;;;;;20.20;99.00;;;;;;4939256;29;20364;-95
2023/09/07 06:22:39;;;;;;;;;;;20.30;98.70;;;;;;4939510;29;19911;-95
2023/09/07 06:25:05;;;;;;;;;;;20.40;98.30;;;;;;4957826;29;20284;-96
2023/09/07 06:27:31;;;;;;;;;;;20.50;98.30;;;;;;4959308;29;19910;-96
2023/09/07 06:29:56;;;;;;;;;;;20.60;98.30;;;;;;4939680;29;19921;-95
2023/09/07 06:32:22;;;;;;;;;;;20.60;98.00;;;;;;4941709;29;19914;-96
2023/09/07 06:34:49;;;;;;;;;;;20.80;97.90;;;;;;4940772;29;19950;-95
2023/09/07 06:37:17;;;;;;;;;;;20.90;97.80;;;;;;4943888;29;19933;-94
2023/09/07 06:39:43;;;;;;;;;;;21.00;97.40;;;;;;4944042;29;19914;-93
2023/09/07 06:42:10;;;;;;;;;;;21.20;96.90;;;;;;4941654;29;20367;-92
2023/09/07 06:44:35;;;;;;;;;;;21.40;96.30;;;;;;4960325;28;20418;-93
2023/09/07 06:47:02;;;;;;;;;;;21.50;96.20;;;;;;4959260;28;20006;-92
2023/09/07 06:49:29;;;;;;;;;;;21.70;96.10;;;;;;4950429;28;20001;-93
2023/09/07 06:51:58;;;;;;;;;;;21.90;96.10;;;;;;4966207;28;19915;-92
2023/09/07 06:54:23;;;;;;;;;;;22.10;95.90;;;;;;4925652;29;20350;-92
2023/09/07 06:56:49;;;;;;;;;;;22.40;95.80;;;;;;4941689;29;19954;-92
2023/09/07 06:59:15;;;;;;;;;;;22.60;95.60;;;;;;4964845;28;19922;-96
2023/09/07 07:01:41;;;;;;;;;;;22.90;95.40;;;;;;4952548;28;19919;-95
2023/09/07 07:04:07;;;;;;;;;;;23.20;95.20;;;;;;4937650;29;19960;-95
2023/09/07 07:06:33;;;;;;;;;;;23.50;94.30;;;;;;4961853;28;19911;-95
2023/09/07 07:08:59;;;;;;;;;;;23.70;92.60;;;;;;4942193;29;20268;-96
2023/09/07 07:11:26;;;;;;;;;;;23.80;91.90;;;;;;4954877;29;19911;-96
2023/09/07 07:13:52;;;;;;;;;;;23.90;90.70;;;;;;4955054;28;19922;-96
2023/09/07 07:16:18;;;;;;;;;;;23.90;88.00;;;;;;4953812;29;19974;-96
2023/09/07 07:18:43;;;;;;;;;;;24.00;88.20;;;;;;4958243;28;20395;-96
2023/09/07 07:21:13;;;;;;;;;;;24.10;88.80;;;;;;4964033;28;20327;-96
2023/09/07 07:23:39;;;;;;;;;;;24.30;89.20;;;;;;4961820;28;19920;-94
2023/09/07 07:26:04;;;;;;;;;;;24.50;86.20;;;;;;4952168;28;20005;-95
2023/09/07 07:28:30;;;;;;;;;;;24.60;86.30;;;;;;4946876;28;19918;-95
2023/09/07 07:30:56;;;;;;;;;;;24.70;86.20;;;;;;4948814;28;20252;-96
2023/09/07 07:33:21;;;;;;;;;;;24.80;86.00;;;;;;4962189;28;19910;-96
2023/09/07 07:35:47;;;;;;;;;;;25.00;85.00;;;;;;4961024;28;20291;-95
2023/09/07 07:38:13;;;;;;;;;;;25.00;85.10;;;;;;4961346;28;19918;-92
2023/09/07 07:40:39;;;;;;;;;;;25.20;85.20;;;;;;4963402;28;19922;-92
2023/09/07 07:43:06;;;;;;;;;;;25.30;85.00;;;;;;4925105;29;19918;-92
2023/09/07 07:45:36;;;;;;;;;;;25.50;85.00;;;;;;4943628;28;20409;-91
2023/09/07 07:48:02;;;;;;;;;;;25.60;84.50;;;;;;4964037;28;19954;-93
2023/09/07 07:50:28;;;;;;;;;;;25.80;83.10;;;;;;4943843;28;20398;-92
2023/09/07 07:52:54;;;;;;;;;;;25.90;83.80;;;;;;4943080;29;19914;-92
2023/09/07 07:55:19;;;;;;;;;;;26.00;83.10;;;;;;4958937;28;19914;-93
2023/09/07 07:57:45;;;;;;;;;;;26.20;82.30;;;;;;4959589;28;19922;-93
2023/09/07 08:00:11;;;;;;;;;;;26.30;81.80;;;;;;4957114;29;20001;-93
2023/09/07 08:02:37;;;;;;;;;;;26.50;81.90;;;;;;4942428;28;19914;-93
2023/09/07 08:05:03;;;;;;;;;;;26.60;79.20;;;;;;4959592;28;20338;-93
2023/09/07 08:07:28;;;;;;;;;;;26.70;77.40;;;;;;4941001;29;19914;-94
2023/09/07 08:09:54;;;;;;;;;;;26.70;76.20;;;;;;4968876;28;19922;-93
2023/09/07 08:12:19;;;;;;;;;;;26.80;76.90;;;;;;4950848;28;19969;-92
2023/09/07 08:14:45;;;;;;;;;;;26.90;76.00;;;;;;4961354;28;19993;-92
2023/09/07 08:17:10;;;;;;;;;;;27.00;76.00;;;;;;4956081;29;19922;-91
2023/09/07 08:19:37;;;;;;;;;;;27.10;74.30;;;;;;4940071;29;19968;-93
2023/09/07 08:22:04;;;;;;;;;;;27.30;73.20;;;;;;4949474;28;19928;-93
2023/09/07 08:24:29;;;;;;;;;;;27.40;73.40;;;;;;4969079;28;19969;-94
2023/09/07 08:26:57;;;;;;;;;;;27.50;72.00;;;;;;4944633;28;19969;-94
2023/09/07 08:29:26;;;;;;;;;;;27.50;71.30;;;;;;4946179;29;20005;-93
2023/09/07 08:31:52;;;;;;;;;;;27.60;70.60;;;;;;4941617;29;19910;-96
2023/09/07 08:34:20;;;;;;;;;;;27.70;70.80;;;;;;4944214;28;19921;-93
2023/09/07 08:36:46;;;;;;;;;;;27.70;70.80;;;;;;4940133;29;20320;-94
2023/09/07 08:39:12;;;;;;;;;;;27.90;70.40;;;;;;4939777;29;19922;-95
2023/09/07 08:41:43;;;;;;;;;;;28.00;70.80;;;;;;4941803;29;19919;-92
2023/09/07 08:44:21;;;;;;;;;;;28.10;69.50;;;;;;4939759;29;20356;-95
2023/09/07 08:46:47;;;;;;;;;;;28.20;69.40;;;;;;4940358;29;19950;-94
2023/09/07 08:49:12;;;;;;;;;;;28.30;68.40;;;;;;4945567;28;19960;-94
2023/09/07 08:51:38;;;;;;;;;;;28.40;68.50;;;;;;4942207;28;19911;-90
2023/09/07 08:54:04;;;;;;;;;;;28.40;67.90;;;;;;4961267;28;19922;-93
2023/09/07 08:56:29;;;;;;;;;;;28.40;68.20;;;;;;4944386;28;19915;-94
2023/09/07 08:58:55;;;;;;;;;;;28.50;66.80;;;;;;4935793;28;20383;-93
2023/09/07 09:01:21;;;;;;;;;;;28.50;65.10;;;;;;4942717;29;20371;-92
2023/09/07 09:03:48;;;;;;;;;;;28.40;66.00;;;;;;4957413;28;19946;-90
2023/09/07 09:06:14;;;;;;;;;;;28.50;66.10;;;;;;4938455;28;19917;-93
2023/09/07 09:08:48;;;;;;;;;;;28.70;67.10;;;;;;4955812;28;20379;-92
2023/09/07 09:11:14;;;;;;;;;;;28.80;66.50;;;;;;4958367;28;19910;-92
2023/09/07 09:13:41;;;;;;;;;;;28.90;66.30;;;;;;4961753;28;20278;-92
2023/09/07 09:16:06;;;;;;;;;;;28.90;65.90;;;;;;4942912;28;19918;-93
2023/09/07 09:18:32;;;;;;;;;;;28.90;63.70;;;;;;4958489;28;19918;-92
2023/09/07 09:21:00;;;;;;;;;;;28.70;64.60;;;;;;4959122;28;20371;-94
2023/09/07 09:23:36;;;;;;;;;;;28.80;64.70;;;;;;4975697;28;19910;-94
2023/09/07 09:26:03;;;;;;;;;;;28.80;65.10;;;;;;4959910;28;20264;-95
2023/09/07 09:28:31;;;;;;;;;;;28.90;63.40;;;;;;4958382;28;19961;-92
2023/09/07 09:30:58;;;;;;;;;;;28.90;63.70;;;;;;4958454;28;19965;-93
2023/09/07 09:33:23;;;;;;;;;;;28.90;63.70;;;;;;4958681;28;19914;-94
2023/09/07 09:35:50;;;;;;;;;;;28.90;62.70;;;;;;4958207;28;20255;-93
2023/09/07 09:38:16;;;;;;;;;;;28.80;63.20;;;;;;4975828;28;19917;-94
2023/09/07 09:40:42;;;;;;;;;;;28.90;63.70;;;;;;4958234;28;19960;-92
2023/09/07 09:43:08;;;;;;;;;;;28.90;62.90;;;;;;4958013;28;19910;-95
2023/09/07 09:45:35;;;;;;;;;;;29.10;62.60;;;;;;4958369;28;20347;-94
2023/09/07 09:48:01;;;;;;;;;;;29.00;62.20;;;;;;4959424;28;19917;-95
2023/09/07 09:50:27;;;;;;;;;;;29.00;60.60;;;;;;4958304;28;19910;-96
2023/09/07 09:52:55;;;;;;;;;;;28.80;59.20;;;;;;4957989;28;20357;-92
2023/09/07 09:55:21;;;;;;;;;;;28.60;59.00;;;;;;4958181;28;19993;-91
2023/09/07 09:57:47;;;;;;;;;;;28.50;58.80;;;;;;4958389;28;20402;-92
2023/09/07 10:00:25;;;;;;;;;;;28.40;59.20;;;;;;4958155;28;19911;-93
2023/09/07 10:02:57;;;;;;;;;;;28.40;60.20;;;;;;4978193;28;19910;-91
2023/09/07 10:05:23;;;;;;;;;;;28.40;58.70;;;;;;4959829;28;19914;-95
2023/09/07 10:07:52;;;;;;;;;;;28.30;59.00;;;;;;4961258;28;19910;-94
2023/09/07 10:10:18;;;;;;;;;;;28.30;59.00;;;;;;4959065;28;20009;-95
2023/09/07 10:12:45;;;;;;;;;;;28.20;59.60;;;;;;4960707;28;19910;-95
2023/09/07 10:15:20;;;;;;;;;;;28.30;58.40;;;;;;4962528;28;19917;-92
2023/09/07 10:17:49;;;;;;;;;;;28.20;57.60;;;;;;4962096;28;19929;-95
2023/09/07 10:20:15;;;;;;;;;;;28.20;57.90;;;;;;4962011;28;19910;-93
2023/09/07 10:22:41;;;;;;;;;;;28.20;58.50;;;;;;4963166;28;19910;-94
2023/09/07 10:25:28;;;;;;;;;;;28.30;57.30;;;;;;4967352;28;20462;-96
2023/09/07 10:27:53;;;;;;;;;;;28.30;56.20;;;;;;4980201;28;19917;-94
2023/09/07 10:30:22;;;;;;;;;;;28.20;56.80;;;;;;4979606;28;19914;-94
2023/09/07 10:32:48;;;;;;;;;;;28.20;57.80;;;;;;4980504;28;20387;-94
2023/09/07 10:35:18;;;;;;;;;;;28.30;57.00;;;;;;4963153;28;19910;-96
2023/09/07 10:37:45;;;;;;;;;;;28.30;57.30;;;;;;4962224;28;19958;-96
2023/09/07 10:40:11;;;;;;;;;;;28.40;57.60;;;;;;4963771;28;19972;-96
2023/09/07 19:33:29;;;;;;;;;;;17.50;65.70;;;;;;5112914;27;20260;-92
2023/09/07 19:35:55;;;;;;;;;;;17.40;67.00;;;;;;5145175;27;19995;-94
2023/09/07 19:38:20;;;;;;;;;;;17.40;67.70;;;;;;5110822;28;20360;-95
2023/09/07 19:40:46;;;;;;;;;;;17.40;68.10;;;;;;5110163;28;19908;-93
2023/09/07 19:43:11;;;;;;;;;;;17.50;68.40;;;;;;5110764;28;19973;-94
2023/09/07 19:45:37;;;;;;;;;;;17.50;68.50;;;;;;5110643;28;20413;-93
2023/09/07 19:48:03;;;;;;;;;;;17.50;68.30;;;;;;5110603;28;19908;-94
2023/09/07 19:50:28;;;;;;;;;;;17.60;68.20;;;;;;5112215;28;19957;-93
2023/09/07 19:52:54;;;;;;;;;;;17.60;68.00;;;;;;5110347;28;20284;-94
2023/09/07 19:55:19;;;;;;;;;;;17.70;68.10;;;;;;5110471;28;19908;-93
2023/09/07 19:57:45;;;;;;;;;;;17.70;67.90;;;;;;5110408;28;19908;-93
2023/09/07 20:00:13;;;;;;;;;;;17.70;67.90;;;;;;5110370;28;19912;-95
2023/09/07 20:02:40;;;;;;;;;;;17.80;67.90;;;;;;5111989;28;19915;-93
